sensor_id;sensor_type;location;lat;lon;timestamp;P1;durP1;ratioP1;P2;durP2;ratioP2
56927;SDS011;60850;52.502;13.426;2023-02-28T00:00:32;8.60;;;2.80;;
56927;SDS011;60850;52.502;13.426;2023-02-28T00:03:14;6.53;;;2.58;;
56927;SDS011;60850;52.502;13.426;2023-02-28T00:05:40;6.38;;;2.47;;
56927;SDS011;60850;52.502;13.426;2023-02-28T00:08:08;5.97;;;2.35;;
56927;SDS011;60850;52.502;13.426;2023-02-28T00:10:35;4.57;;;2.58;;
56927;SDS011;60850;52.502;13.426;2023-02-28T00:13:03;4.63;;;2.28;;
56927;SDS011;60850;52.502;13.426;2023-02-28T00:15:32;6.53;;;3.00;;
56927;SDS011;60850;52.502;13.426;2023-02-28T00:18:00;6.82;;;2.42;;
56927;SDS011;60850;52.502;13.426;2023-02-28T00:20:26;5.53;;;2.78;;
56927;SDS011;60850;52.502;13.426;2023-02-28T00:22:54;6.50;;;3.15;;
56927;SDS011;60850;52.502;13.426;2023-02-28T00:25:21;6.93;;;2.78;;
56927;SDS011;60850;52.502;13.426;2023-02-28T00:27:50;5.40;;;2.47;;
56927;SDS011;60850;52.502;13.426;2023-02-28T00:30:18;7.03;;;2.70;;
56927;SDS011;60850;52.502;13.426;2023-02-28T00:32:47;7.68;;;2.67;;
56927;SDS011;60850;52.502;13.426;2023-02-28T00:35:14;7.70;;;2.75;;
56927;SDS011;60850;52.502;13.426;2023-02-28T00:37:41;6.10;;;3.17;;
56927;SDS011;60850;52.502;13.426;2023-02-28T00:40:08;8.07;;;2.72;;
56927;SDS011;60850;52.502;13.426;2023-02-28T00:42:37;6.40;;;2.75;;
56927;SDS011;60850;52.502;13.426;2023-02-28T00:45:05;5.13;;;2.45;;
56927;SDS011;60850;52.502;13.426;2023-02-28T00:47:35;6.25;;;2.55;;
56927;SDS011;60850;52.502;13.426;2023-02-28T00:50:02;7.43;;;2.38;;
56927;SDS011;60850;52.502;13.426;2023-02-28T00:52:29;6.95;;;3.30;;
56927;SDS011;60850;52.502;13.426;2023-02-28T00:54:56;9.00;;;2.50;;
56927;SDS011;60850;52.502;13.426;2023-02-28T00:57:24;7.65;;;3.00;;
56927;SDS011;60850;52.502;13.426;2023-02-28T00:59:51;10.65;;;3.28;;
56927;SDS011;60850;52.502;13.426;2023-02-28T01:02:19;7.55;;;2.63;;
56927;SDS011;60850;52.502;13.426;2023-02-28T01:04:48;5.53;;;3.15;;
56927;SDS011;60850;52.502;13.426;2023-02-28T01:07:15;6.05;;;2.78;;
56927;SDS011;60850;52.502;13.426;2023-02-28T01:09:42;6.97;;;3.10;;
56927;SDS011;60850;52.502;13.426;2023-02-28T01:12:09;6.70;;;3.03;;
56927;SDS011;60850;52.502;13.426;2023-02-28T01:14:36;6.97;;;3.15;;
56927;SDS011;60850;52.502;13.426;2023-02-28T01:17:03;9.00;;;3.78;;
56927;SDS011;60850;52.502;13.426;2023-02-28T01:19:30;10.38;;;3.10;;
56927;SDS011;60850;52.502;13.426;2023-02-28T01:22:01;8.85;;;2.92;;
56927;SDS011;60850;52.502;13.426;2023-02-28T01:24:28;5.75;;;3.20;;
56927;SDS011;60850;52.502;13.426;2023-02-28T01:26:55;6.45;;;3.05;;
56927;SDS011;60850;52.502;13.426;2023-02-28T01:29:22;6.88;;;3.33;;
56927;SDS011;60850;52.502;13.426;2023-02-28T01:31:49;10.82;;;3.45;;
56927;SDS011;60850;52.502;13.426;2023-02-28T01:34:16;6.60;;;3.38;;
56927;SDS011;60850;52.502;13.426;2023-02-28T01:36:44;7.93;;;3.50;;
56927;SDS011;60850;52.502;13.426;2023-02-28T01:39:13;6.38;;;3.50;;
56927;SDS011;60850;52.502;13.426;2023-02-28T01:41:40;6.05;;;2.92;;
56927;SDS011;60850;52.502;13.426;2023-02-28T01:44:53;7.20;;;2.85;;
56927;SDS011;60850;52.502;13.426;2023-02-28T01:47:12;9.45;;;3.13;;
56927;SDS011;60850;52.502;13.426;2023-02-28T01:49:40;9.00;;;3.67;;
56927;SDS011;60850;52.502;13.426;2023-02-28T01:52:07;9.30;;;3.75;;
56927;SDS011;60850;52.502;13.426;2023-02-28T01:54:44;6.05;;;3.03;;
56927;SDS011;60850;52.502;13.426;2023-02-28T01:57:16;7.55;;;3.60;;
56927;SDS011;60850;52.502;13.426;2023-02-28T01:59:47;8.05;;;3.13;;
56927;SDS011;60850;52.502;13.426;2023-02-28T02:02:20;7.90;;;3.42;;
56927;SDS011;60850;52.502;13.426;2023-02-28T02:04:50;6.18;;;3.42;;
56927;SDS011;60850;52.502;13.426;2023-02-28T02:07:21;6.63;;;3.40;;
56927;SDS011;60850;52.502;13.426;2023-02-28T02:09:56;8.15;;;3.45;;
56927;SDS011;60850;52.502;13.426;2023-02-28T02:12:28;8.55;;;3.83;;
56927;SDS011;60850;52.502;13.426;2023-02-28T02:15:04;6.80;;;3.70;;
56927;SDS011;60850;52.502;13.426;2023-02-28T02:17:56;7.75;;;3.33;;
56927;SDS011;60850;52.502;13.426;2023-02-28T02:20:38;7.40;;;4.10;;
56927;SDS011;60850;52.502;13.426;2023-02-28T02:23:49;6.53;;;3.40;;
56927;SDS011;60850;52.502;13.426;2023-02-28T02:26:47;9.15;;;3.88;;
56927;SDS011;60850;52.502;13.426;2023-02-28T02:35:28;7.82;;;3.72;;
56927;SDS011;60850;52.502;13.426;2023-02-28T02:37:59;6.68;;;3.20;;
56927;SDS011;60850;52.502;13.426;2023-02-28T02:40:35;7.88;;;3.88;;
56927;SDS011;60850;52.502;13.426;2023-02-28T02:43:06;8.95;;;3.72;;
56927;SDS011;60850;52.502;13.426;2023-02-28T02:45:38;9.80;;;4.07;;
56927;SDS011;60850;52.502;13.426;2023-02-28T02:48:12;9.02;;;3.83;;
56927;SDS011;60850;52.502;13.426;2023-02-28T02:50:44;8.77;;;3.80;;
56927;SDS011;60850;52.502;13.426;2023-02-28T02:53:14;10.10;;;4.60;;
56927;SDS011;60850;52.502;13.426;2023-02-28T02:55:46;6.97;;;4.10;;
56927;SDS011;60850;52.502;13.426;2023-02-28T02:58:18;10.13;;;4.95;;
56927;SDS011;60850;52.502;13.426;2023-02-28T03:00:50;7.97;;;3.90;;
56927;SDS011;60850;52.502;13.426;2023-02-28T03:03:20;9.80;;;4.20;;
56927;SDS011;60850;52.502;13.426;2023-02-28T03:05:55;8.05;;;3.90;;
56927;SDS011;60850;52.502;13.426;2023-02-28T03:08:23;8.80;;;3.70;;
56927;SDS011;60850;52.502;13.426;2023-02-28T03:10:51;9.73;;;3.70;;
56927;SDS011;60850;52.502;13.426;2023-02-28T03:13:30;10.80;;;3.83;;
56927;SDS011;60850;52.502;13.426;2023-02-28T03:19:03;7.97;;;4.20;;
56927;SDS011;60850;52.502;13.426;2023-02-28T03:21:43;7.57;;;3.67;;
56927;SDS011;60850;52.502;13.426;2023-02-28T03:24:18;10.20;;;3.97;;
56927;SDS011;60850;52.502;13.426;2023-02-28T03:26:52;7.60;;;3.92;;
56927;SDS011;60850;52.502;13.426;2023-02-28T03:31:57;9.18;;;4.13;;
56927;SDS011;60850;52.502;13.426;2023-02-28T03:34:26;9.38;;;3.78;;
56927;SDS011;60850;52.502;13.426;2023-02-28T03:37:02;9.00;;;3.67;;
56927;SDS011;60850;52.502;13.426;2023-02-28T03:39:35;5.35;;;3.35;;
56927;SDS011;60850;52.502;13.426;2023-02-28T03:42:08;9.57;;;3.78;;
56927;SDS011;60850;52.502;13.426;2023-02-28T03:44:38;7.13;;;3.60;;
56927;SDS011;60850;52.502;13.426;2023-02-28T03:47:10;7.50;;;4.07;;
56927;SDS011;60850;52.502;13.426;2023-02-28T03:49:42;8.52;;;4.10;;
56927;SDS011;60850;52.502;13.426;2023-02-28T03:52:15;7.85;;;3.47;;
56927;SDS011;60850;52.502;13.426;2023-02-28T03:54:49;7.43;;;3.55;;
56927;SDS011;60850;52.502;13.426;2023-02-28T03:57:22;8.05;;;3.58;;
56927;SDS011;60850;52.502;13.426;2023-02-28T03:59:57;7.32;;;3.85;;
56927;SDS011;60850;52.502;13.426;2023-02-28T04:02:29;8.30;;;4.32;;
56927;SDS011;60850;52.502;13.426;2023-02-28T04:04:56;9.43;;;3.95;;
56927;SDS011;60850;52.502;13.426;2023-02-28T04:07:28;6.93;;;4.10;;
56927;SDS011;60850;52.502;13.426;2023-02-28T04:09:55;12.65;;;4.55;;
56927;SDS011;60850;52.502;13.426;2023-02-28T04:12:23;6.72;;;3.67;;
56927;SDS011;60850;52.502;13.426;2023-02-28T04:14:50;11.82;;;5.35;;
56927;SDS011;60850;52.502;13.426;2023-02-28T04:17:17;14.27;;;4.50;;
56927;SDS011;60850;52.502;13.426;2023-02-28T04:19:44;10.18;;;4.50;;
56927;SDS011;60850;52.502;13.426;2023-02-28T04:22:11;7.43;;;3.95;;
56927;SDS011;60850;52.502;13.426;2023-02-28T04:24:40;10.23;;;4.57;;
56927;SDS011;60850;52.502;13.426;2023-02-28T04:27:08;8.35;;;4.28;;
56927;SDS011;60850;52.502;13.426;2023-02-28T04:29:35;10.05;;;5.03;;
56927;SDS011;60850;52.502;13.426;2023-02-28T04:32:03;13.23;;;4.72;;
56927;SDS011;60850;52.502;13.426;2023-02-28T04:34:31;12.07;;;5.15;;
56927;SDS011;60850;52.502;13.426;2023-02-28T04:36:58;9.57;;;5.05;;
56927;SDS011;60850;52.502;13.426;2023-02-28T04:39:25;11.02;;;4.65;;
56927;SDS011;60850;52.502;13.426;2023-02-28T04:41:54;9.98;;;5.43;;
56927;SDS011;60850;52.502;13.426;2023-02-28T04:44:22;10.60;;;4.45;;
56927;SDS011;60850;52.502;13.426;2023-02-28T04:46:49;11.10;;;4.57;;
56927;SDS011;60850;52.502;13.426;2023-02-28T04:49:16;11.30;;;5.00;;
56927;SDS011;60850;52.502;13.426;2023-02-28T04:51:43;11.00;;;5.38;;
56927;SDS011;60850;52.502;13.426;2023-02-28T04:54:10;10.98;;;5.03;;
56927;SDS011;60850;52.502;13.426;2023-02-28T04:56:38;9.25;;;4.80;;
56927;SDS011;60850;52.502;13.426;2023-02-28T04:59:07;11.98;;;5.10;;
56927;SDS011;60850;52.502;13.426;2023-02-28T05:01:34;11.00;;;4.70;;
56927;SDS011;60850;52.502;13.426;2023-02-28T05:04:02;9.70;;;4.47;;
56927;SDS011;60850;52.502;13.426;2023-02-28T05:06:32;7.72;;;3.85;;
56927;SDS011;60850;52.502;13.426;2023-02-28T05:08:59;8.52;;;3.90;;
56927;SDS011;60850;52.502;13.426;2023-02-28T05:11:27;7.85;;;4.25;;
56927;SDS011;60850;52.502;13.426;2023-02-28T05:14:00;7.68;;;3.90;;
56927;SDS011;60850;52.502;13.426;2023-02-28T05:16:28;8.48;;;4.53;;
56927;SDS011;60850;52.502;13.426;2023-02-28T05:18:56;8.68;;;4.10;;
56927;SDS011;60850;52.502;13.426;2023-02-28T05:21:24;10.70;;;4.15;;
56927;SDS011;60850;52.502;13.426;2023-02-28T05:23:56;8.52;;;4.55;;
56927;SDS011;60850;52.502;13.426;2023-02-28T05:26:24;10.23;;;4.82;;
56927;SDS011;60850;52.502;13.426;2023-02-28T05:28:51;7.32;;;3.47;;
56927;SDS011;60850;52.502;13.426;2023-02-28T05:31:18;9.27;;;4.28;;
56927;SDS011;60850;52.502;13.426;2023-02-28T05:33:46;9.30;;;4.85;;
56927;SDS011;60850;52.502;13.426;2023-02-28T05:36:13;8.77;;;4.10;;
56927;SDS011;60850;52.502;13.426;2023-02-28T05:38:40;7.70;;;4.45;;
56927;SDS011;60850;52.502;13.426;2023-02-28T05:41:07;13.85;;;4.03;;
56927;SDS011;60850;52.502;13.426;2023-02-28T05:43:35;10.95;;;4.60;;
56927;SDS011;60850;52.502;13.426;2023-02-28T05:46:03;13.18;;;4.88;;
56927;SDS011;60850;52.502;13.426;2023-02-28T05:48:31;9.40;;;4.72;;
56927;SDS011;60850;52.502;13.426;2023-02-28T05:51:00;8.60;;;4.97;;
56927;SDS011;60850;52.502;13.426;2023-02-28T05:53:27;12.90;;;5.93;;
56927;SDS011;60850;52.502;13.426;2023-02-28T05:55:55;13.40;;;6.25;;
56927;SDS011;60850;52.502;13.426;2023-02-28T05:58:22;16.73;;;7.50;;
56927;SDS011;60850;52.502;13.426;2023-02-28T06:00:50;18.65;;;6.85;;
56927;SDS011;60850;52.502;13.426;2023-02-28T06:03:17;14.05;;;5.72;;
56927;SDS011;60850;52.502;13.426;2023-02-28T06:05:45;13.30;;;5.85;;
56927;SDS011;60850;52.502;13.426;2023-02-28T06:08:13;11.68;;;6.00;;
56927;SDS011;60850;52.502;13.426;2023-02-28T06:10:41;18.55;;;5.60;;
56927;SDS011;60850;52.502;13.426;2023-02-28T06:13:07;18.67;;;5.88;;
56927;SDS011;60850;52.502;13.426;2023-02-28T06:15:34;14.35;;;6.45;;
56927;SDS011;60850;52.502;13.426;2023-02-28T06:18:01;17.48;;;7.53;;
56927;SDS011;60850;52.502;13.426;2023-02-28T06:20:29;15.93;;;7.07;;
56927;SDS011;60850;52.502;13.426;2023-02-28T06:22:56;22.10;;;7.63;;
56927;SDS011;60850;52.502;13.426;2023-02-28T06:25:26;18.40;;;7.18;;
56927;SDS011;60850;52.502;13.426;2023-02-28T06:27:53;15.00;;;7.22;;
56927;SDS011;60850;52.502;13.426;2023-02-28T06:30:21;12.15;;;6.43;;
56927;SDS011;60850;52.502;13.426;2023-02-28T06:32:50;16.45;;;7.75;;
56927;SDS011;60850;52.502;13.426;2023-02-28T06:35:17;17.25;;;7.15;;
56927;SDS011;60850;52.502;13.426;2023-02-28T06:37:44;12.07;;;6.53;;
56927;SDS011;60850;52.502;13.426;2023-02-28T06:40:12;19.83;;;7.28;;
56927;SDS011;60850;52.502;13.426;2023-02-28T06:42:41;15.43;;;7.03;;
56927;SDS011;60850;52.502;13.426;2023-02-28T06:45:09;14.88;;;7.15;;
56927;SDS011;60850;52.502;13.426;2023-02-28T06:47:36;16.83;;;7.88;;
56927;SDS011;60850;52.502;13.426;2023-02-28T06:50:05;21.88;;;9.30;;
56927;SDS011;60850;52.502;13.426;2023-02-28T06:52:34;22.88;;;9.88;;
56927;SDS011;60850;52.502;13.426;2023-02-28T06:55:03;16.23;;;8.05;;
56927;SDS011;60850;52.502;13.426;2023-02-28T06:57:30;18.92;;;8.63;;
56927;SDS011;60850;52.502;13.426;2023-02-28T07:00:00;16.08;;;8.50;;
56927;SDS011;60850;52.502;13.426;2023-02-28T07:02:29;18.35;;;8.35;;
56927;SDS011;60850;52.502;13.426;2023-02-28T07:04:57;18.33;;;8.65;;
56927;SDS011;60850;52.502;13.426;2023-02-28T07:07:23;14.48;;;8.57;;
56927;SDS011;60850;52.502;13.426;2023-02-28T07:09:50;20.38;;;9.35;;
56927;SDS011;60850;52.502;13.426;2023-02-28T07:12:17;20.00;;;9.77;;
56927;SDS011;60850;52.502;13.426;2023-02-28T07:14:44;19.80;;;10.55;;
56927;SDS011;60850;52.502;13.426;2023-02-28T07:17:12;16.60;;;8.48;;
56927;SDS011;60850;52.502;13.426;2023-02-28T07:19:39;18.60;;;7.72;;
56927;SDS011;60850;52.502;13.426;2023-02-28T07:22:06;12.38;;;6.47;;
56927;SDS011;60850;52.502;13.426;2023-02-28T07:24:34;16.33;;;7.47;;
56927;SDS011;60850;52.502;13.426;2023-02-28T07:27:00;17.40;;;7.97;;
56927;SDS011;60850;52.502;13.426;2023-02-28T07:29:28;18.33;;;7.78;;
56927;SDS011;60850;52.502;13.426;2023-02-28T07:31:55;16.17;;;8.43;;
56927;SDS011;60850;52.502;13.426;2023-02-28T07:34:24;15.48;;;7.07;;
56927;SDS011;60850;52.502;13.426;2023-02-28T07:36:52;15.43;;;6.07;;
56927;SDS011;60850;52.502;13.426;2023-02-28T07:39:20;11.68;;;5.10;;
56927;SDS011;60850;52.502;13.426;2023-02-28T07:41:47;12.52;;;5.40;;
56927;SDS011;60850;52.502;13.426;2023-02-28T07:44:14;10.70;;;6.35;;
56927;SDS011;60850;52.502;13.426;2023-02-28T07:46:41;10.73;;;5.88;;
56927;SDS011;60850;52.502;13.426;2023-02-28T07:49:08;17.13;;;8.05;;
56927;SDS011;60850;52.502;13.426;2023-02-28T07:51:36;10.77;;;4.75;;
56927;SDS011;60850;52.502;13.426;2023-02-28T07:54:04;7.60;;;4.40;;
56927;SDS011;60850;52.502;13.426;2023-02-28T07:56:31;10.38;;;3.90;;
56927;SDS011;60850;52.502;13.426;2023-02-28T07:58:58;6.63;;;3.78;;
56927;SDS011;60850;52.502;13.426;2023-02-28T08:01:24;9.73;;;5.03;;
56927;SDS011;60850;52.502;13.426;2023-02-28T08:03:51;9.57;;;4.07;;
56927;SDS011;60850;52.502;13.426;2023-02-28T08:06:21;9.75;;;3.47;;
56927;SDS011;60850;52.502;13.426;2023-02-28T08:08:51;7.60;;;3.67;;
56927;SDS011;60850;52.502;13.426;2023-02-28T08:11:18;6.85;;;3.50;;
56927;SDS011;60850;52.502;13.426;2023-02-28T08:13:46;6.07;;;3.60;;
56927;SDS011;60850;52.502;13.426;2023-02-28T08:16:13;5.63;;;2.60;;
56927;SDS011;60850;52.502;13.426;2023-02-28T08:18:42;5.13;;;2.20;;
56927;SDS011;60850;52.502;13.426;2023-02-28T08:21:09;5.28;;;2.20;;
56927;SDS011;60850;52.502;13.426;2023-02-28T08:23:37;6.38;;;2.45;;
56927;SDS011;60850;52.502;13.426;2023-02-28T08:26:05;4.72;;;2.30;;
56927;SDS011;60850;52.502;13.426;2023-02-28T08:28:32;3.42;;;2.10;;
56927;SDS011;60850;52.502;13.426;2023-02-28T08:31:00;4.00;;;2.15;;
56927;SDS011;60850;52.502;13.426;2023-02-28T08:33:27;5.95;;;2.58;;
56927;SDS011;60850;52.502;13.426;2023-02-28T08:35:55;5.13;;;2.70;;
56927;SDS011;60850;52.502;13.426;2023-02-28T08:38:23;4.88;;;2.20;;
56927;SDS011;60850;52.502;13.426;2023-02-28T08:40:50;2.90;;;1.98;;
56927;SDS011;60850;52.502;13.426;2023-02-28T08:43:25;4.05;;;2.20;;
56927;SDS011;60850;52.502;13.426;2023-02-28T08:45:52;7.97;;;3.17;;
56927;SDS011;60850;52.502;13.426;2023-02-28T08:48:22;4.38;;;1.98;;
56927;SDS011;60850;52.502;13.426;2023-02-28T08:50:54;3.30;;;2.00;;
56927;SDS011;60850;52.502;13.426;2023-02-28T08:53:22;4.95;;;2.78;;
56927;SDS011;60850;52.502;13.426;2023-02-28T08:55:55;3.42;;;1.52;;
56927;SDS011;60850;52.502;13.426;2023-02-28T08:58:23;5.45;;;2.40;;
56927;SDS011;60850;52.502;13.426;2023-02-28T09:00:51;5.13;;;1.70;;
56927;SDS011;60850;52.502;13.426;2023-02-28T09:03:18;3.33;;;1.92;;
56927;SDS011;60850;52.502;13.426;2023-02-28T09:05:51;7.70;;;2.22;;
56927;SDS011;60850;52.502;13.426;2023-02-28T09:08:20;4.55;;;1.83;;
56927;SDS011;60850;52.502;13.426;2023-02-28T09:10:47;4.22;;;1.67;;
56927;SDS011;60850;52.502;13.426;2023-02-28T09:13:14;5.35;;;2.47;;
56927;SDS011;60850;52.502;13.426;2023-02-28T09:15:41;4.40;;;2.10;;
56927;SDS011;60850;52.502;13.426;2023-02-28T09:18:09;4.50;;;1.52;;
56927;SDS011;60850;52.502;13.426;2023-02-28T09:20:37;8.38;;;2.15;;
56927;SDS011;60850;52.502;13.426;2023-02-28T09:23:05;3.25;;;1.60;;
56927;SDS011;60850;52.502;13.426;2023-02-28T09:25:32;3.47;;;1.45;;
56927;SDS011;60850;52.502;13.426;2023-02-28T09:27:59;2.53;;;1.30;;
56927;SDS011;60850;52.502;13.426;2023-02-28T09:30:26;2.60;;;1.27;;
56927;SDS011;60850;52.502;13.426;2023-02-28T09:32:54;2.65;;;1.20;;
56927;SDS011;60850;52.502;13.426;2023-02-28T09:35:23;3.45;;;1.35;;
56927;SDS011;60850;52.502;13.426;2023-02-28T09:37:52;3.53;;;1.40;;
56927;SDS011;60850;52.502;13.426;2023-02-28T09:40:19;3.00;;;1.45;;
56927;SDS011;60850;52.502;13.426;2023-02-28T09:42:49;4.25;;;1.60;;
56927;SDS011;60850;52.502;13.426;2023-02-28T09:45:21;2.58;;;1.58;;
56927;SDS011;60850;52.502;13.426;2023-02-28T09:47:51;4.63;;;1.67;;
56927;SDS011;60850;52.502;13.426;2023-02-28T09:50:24;3.08;;;1.67;;
56927;SDS011;60850;52.502;13.426;2023-02-28T09:52:58;4.15;;;1.60;;
56927;SDS011;60850;52.502;13.426;2023-02-28T09:55:28;4.30;;;1.90;;
56927;SDS011;60850;52.502;13.426;2023-02-28T09:58:00;2.83;;;1.65;;
56927;SDS011;60850;52.502;13.426;2023-02-28T10:00:29;3.47;;;1.90;;
56927;SDS011;60850;52.502;13.426;2023-02-28T10:03:04;6.07;;;2.40;;
56927;SDS011;60850;52.502;13.426;2023-02-28T10:05:48;3.78;;;1.65;;
56927;SDS011;60850;52.502;13.426;2023-02-28T10:08:19;3.58;;;1.92;;
56927;SDS011;60850;52.502;13.426;2023-02-28T10:10:53;3.42;;;2.17;;
56927;SDS011;60850;52.502;13.426;2023-02-28T10:13:23;2.75;;;1.60;;
56927;SDS011;60850;52.502;13.426;2023-02-28T10:15:54;4.60;;;1.83;;
56927;SDS011;60850;52.502;13.426;2023-02-28T10:18:26;1.83;;;1.20;;
56927;SDS011;60850;52.502;13.426;2023-02-28T10:20:58;3.83;;;1.70;;
56927;SDS011;60850;52.502;13.426;2023-02-28T10:23:27;4.50;;;1.70;;
56927;SDS011;60850;52.502;13.426;2023-02-28T10:25:59;4.75;;;1.85;;
56927;SDS011;60850;52.502;13.426;2023-02-28T10:28:28;3.78;;;1.85;;
56927;SDS011;60850;52.502;13.426;2023-02-28T10:30:57;2.67;;;1.50;;
56927;SDS011;60850;52.502;13.426;2023-02-28T10:33:28;7.57;;;1.60;;
56927;SDS011;60850;52.502;13.426;2023-02-28T10:35:58;4.38;;;1.75;;
56927;SDS011;60850;52.502;13.426;2023-02-28T10:38:25;2.72;;;1.75;;
56927;SDS011;60850;52.502;13.426;2023-02-28T10:41:02;2.72;;;1.63;;
56927;SDS011;60850;52.502;13.426;2023-02-28T10:43:31;3.67;;;1.63;;
56927;SDS011;60850;52.502;13.426;2023-02-28T10:45:59;5.63;;;1.98;;
56927;SDS011;60850;52.502;13.426;2023-02-28T10:48:30;3.75;;;1.60;;
56927;SDS011;60850;52.502;13.426;2023-02-28T10:51:04;4.25;;;1.80;;
56927;SDS011;60850;52.502;13.426;2023-02-28T10:53:34;3.72;;;1.80;;
56927;SDS011;60850;52.502;13.426;2023-02-28T10:56:05;3.53;;;1.65;;
56927;SDS011;60850;52.502;13.426;2023-02-28T10:58:49;3.67;;;1.73;;
56927;SDS011;60850;52.502;13.426;2023-02-28T11:01:19;2.80;;;1.58;;
56927;SDS011;60850;52.502;13.426;2023-02-28T11:03:47;5.10;;;1.73;;
56927;SDS011;60850;52.502;13.426;2023-02-28T11:06:17;4.15;;;1.80;;
56927;SDS011;60850;52.502;13.426;2023-02-28T11:08:48;4.03;;;1.80;;
56927;SDS011;60850;52.502;13.426;2023-02-28T11:11:18;3.83;;;2.10;;
56927;SDS011;60850;52.502;13.426;2023-02-28T11:13:46;4.18;;;1.80;;
56927;SDS011;60850;52.502;13.426;2023-02-28T11:16:16;4.85;;;1.95;;
56927;SDS011;60850;52.502;13.426;2023-02-28T11:18:46;4.75;;;2.05;;
56927;SDS011;60850;52.502;13.426;2023-02-28T11:21:18;4.90;;;2.10;;
56927;SDS011;60850;52.502;13.426;2023-02-28T11:23:49;5.07;;;2.17;;
56927;SDS011;60850;52.502;13.426;2023-02-28T11:29:17;7.13;;;1.95;;
56927;SDS011;60850;52.502;13.426;2023-02-28T11:34:40;4.53;;;2.60;;
56927;SDS011;60850;52.502;13.426;2023-02-28T11:37:11;4.55;;;1.80;;
56927;SDS011;60850;52.502;13.426;2023-02-28T11:39:41;5.43;;;1.90;;
56927;SDS011;60850;52.502;13.426;2023-02-28T11:42:15;4.55;;;2.30;;
56927;SDS011;60850;52.502;13.426;2023-02-28T11:45:03;4.68;;;2.30;;
56927;SDS011;60850;52.502;13.426;2023-02-28T11:47:45;5.63;;;2.47;;
56927;SDS011;60850;52.502;13.426;2023-02-28T11:50:21;4.07;;;2.15;;
56927;SDS011;60850;52.502;13.426;2023-02-28T11:53:01;3.07;;;2.20;;
56927;SDS011;60850;52.502;13.426;2023-02-28T11:55:32;4.40;;;2.28;;
56927;SDS011;60850;52.502;13.426;2023-02-28T11:58:05;5.43;;;2.25;;
56927;SDS011;60850;52.502;13.426;2023-02-28T12:00:45;5.35;;;2.33;;
56927;SDS011;60850;52.502;13.426;2023-02-28T12:03:31;3.95;;;2.22;;
56927;SDS011;60850;52.502;13.426;2023-02-28T12:06:13;4.63;;;1.92;;
56927;SDS011;60850;52.502;13.426;2023-02-28T12:08:51;5.97;;;2.22;;
56927;SDS011;60850;52.502;13.426;2023-02-28T12:11:41;4.25;;;2.15;;
56927;SDS011;60850;52.502;13.426;2023-02-28T12:14:22;6.60;;;2.08;;
56927;SDS011;60850;52.502;13.426;2023-02-28T12:17:03;5.70;;;2.38;;
56927;SDS011;60850;52.502;13.426;2023-02-28T12:19:44;3.45;;;2.00;;
56927;SDS011;60850;52.502;13.426;2023-02-28T12:22:24;2.78;;;1.60;;
56927;SDS011;60850;52.502;13.426;2023-02-28T12:25:03;3.78;;;2.17;;
56927;SDS011;60850;52.502;13.426;2023-02-28T12:27:59;5.22;;;1.98;;
56927;SDS011;60850;52.502;13.426;2023-02-28T12:30:27;5.18;;;2.15;;
56927;SDS011;60850;52.502;13.426;2023-02-28T12:33:00;5.47;;;2.00;;
56927;SDS011;60850;52.502;13.426;2023-02-28T12:35:32;4.85;;;2.10;;
56927;SDS011;60850;52.502;13.426;2023-02-28T12:38:02;3.15;;;1.83;;
56927;SDS011;60850;52.502;13.426;2023-02-28T12:40:39;3.58;;;1.80;;
56927;SDS011;60850;52.502;13.426;2023-02-28T12:43:12;6.30;;;2.08;;
56927;SDS011;60850;52.502;13.426;2023-02-28T12:45:43;3.55;;;1.95;;
56927;SDS011;60850;52.502;13.426;2023-02-28T12:48:16;3.58;;;1.70;;
56927;SDS011;60850;52.502;13.426;2023-02-28T12:50:48;3.47;;;1.90;;
56927;SDS011;60850;52.502;13.426;2023-02-28T12:53:18;3.20;;;1.70;;
56927;SDS011;60850;52.502;13.426;2023-02-28T12:55:57;4.80;;;2.60;;
56927;SDS011;60850;52.502;13.426;2023-02-28T12:58:37;4.45;;;2.08;;
56927;SDS011;60850;52.502;13.426;2023-02-28T13:01:23;4.07;;;1.70;;
56927;SDS011;60850;52.502;13.426;2023-02-28T13:07:20;3.85;;;1.90;;
56927;SDS011;60850;52.502;13.426;2023-02-28T13:10:06;3.58;;;1.42;;
56927;SDS011;60850;52.502;13.426;2023-02-28T13:12:38;6.18;;;2.05;;
56927;SDS011;60850;52.502;13.426;2023-02-28T13:15:17;4.40;;;2.00;;
56927;SDS011;60850;52.502;13.426;2023-02-28T13:17:50;3.65;;;1.98;;
56927;SDS011;60850;52.502;13.426;2023-02-28T13:20:19;4.00;;;1.95;;
56927;SDS011;60850;52.502;13.426;2023-02-28T13:22:48;5.22;;;2.10;;
56927;SDS011;60850;52.502;13.426;2023-02-28T13:31:31;4.78;;;1.77;;
56927;SDS011;60850;52.502;13.426;2023-02-28T13:34:12;3.58;;;1.75;;
56927;SDS011;60850;52.502;13.426;2023-02-28T13:36:41;4.63;;;1.98;;
56927;SDS011;60850;52.502;13.426;2023-02-28T13:42:22;4.43;;;1.70;;
56927;SDS011;60850;52.502;13.426;2023-02-28T13:47:55;3.08;;;2.15;;
56927;SDS011;60850;52.502;13.426;2023-02-28T13:50:33;4.95;;;1.98;;
56927;SDS011;60850;52.502;13.426;2023-02-28T13:56:17;4.40;;;1.88;;
56927;SDS011;60850;52.502;13.426;2023-02-28T13:58:54;3.80;;;2.00;;
56927;SDS011;60850;52.502;13.426;2023-02-28T14:01:28;4.97;;;1.75;;
56927;SDS011;60850;52.502;13.426;2023-02-28T14:09:52;2.83;;;1.90;;
56927;SDS011;60850;52.502;13.426;2023-02-28T14:18:14;5.25;;;2.03;;
56927;SDS011;60850;52.502;13.426;2023-02-28T14:20:47;3.63;;;1.85;;
56927;SDS011;60850;52.502;13.426;2023-02-28T14:23:20;6.07;;;2.42;;
56927;SDS011;60850;52.502;13.426;2023-02-28T14:26:01;3.30;;;1.48;;
56927;SDS011;60850;52.502;13.426;2023-02-28T14:28:40;5.75;;;2.00;;
56927;SDS011;60850;52.502;13.426;2023-02-28T14:31:18;4.25;;;2.08;;
56927;SDS011;60850;52.502;13.426;2023-02-28T14:34:00;5.55;;;2.78;;
56927;SDS011;60850;52.502;13.426;2023-02-28T14:36:42;4.25;;;2.15;;
56927;SDS011;60850;52.502;13.426;2023-02-28T14:39:11;6.07;;;2.17;;
56927;SDS011;60850;52.502;13.426;2023-02-28T14:41:41;4.43;;;1.92;;
56927;SDS011;60850;52.502;13.426;2023-02-28T14:44:15;3.17;;;1.73;;
56927;SDS011;60850;52.502;13.426;2023-02-28T14:46:45;4.65;;;2.35;;
56927;SDS011;60850;52.502;13.426;2023-02-28T14:49:15;4.70;;;2.00;;
56927;SDS011;60850;52.502;13.426;2023-02-28T14:51:47;5.38;;;2.13;;
56927;SDS011;60850;52.502;13.426;2023-02-28T14:54:16;4.72;;;2.25;;
56927;SDS011;60850;52.502;13.426;2023-02-28T14:56:49;4.65;;;2.78;;
56927;SDS011;60850;52.502;13.426;2023-02-28T14:59:24;3.95;;;1.90;;
56927;SDS011;60850;52.502;13.426;2023-02-28T15:02:14;3.20;;;2.10;;
56927;SDS011;60850;52.502;13.426;2023-02-28T15:04:55;4.13;;;1.77;;
56927;SDS011;60850;52.502;13.426;2023-02-28T15:07:25;5.03;;;2.40;;
56927;SDS011;60850;52.502;13.426;2023-02-28T15:10:13;5.30;;;2.20;;
56927;SDS011;60850;52.502;13.426;2023-02-28T15:12:46;2.85;;;1.90;;
56927;SDS011;60850;52.502;13.426;2023-02-28T15:15:18;5.78;;;2.55;;
56927;SDS011;60850;52.502;13.426;2023-02-28T15:17:49;4.90;;;2.53;;
56927;SDS011;60850;52.502;13.426;2023-02-28T15:20:18;5.65;;;2.38;;
56927;SDS011;60850;52.502;13.426;2023-02-28T15:22:47;4.15;;;2.30;;
56927;SDS011;60850;52.502;13.426;2023-02-28T15:25:18;5.88;;;2.45;;
56927;SDS011;60850;52.502;13.426;2023-02-28T15:27:48;7.25;;;2.30;;
56927;SDS011;60850;52.502;13.426;2023-02-28T15:30:17;5.28;;;2.75;;
56927;SDS011;60850;52.502;13.426;2023-02-28T15:33:01;4.53;;;2.80;;
56927;SDS011;60850;52.502;13.426;2023-02-28T15:35:32;4.70;;;2.53;;
56927;SDS011;60850;52.502;13.426;2023-02-28T15:38:02;4.68;;;2.38;;
56927;SDS011;60850;52.502;13.426;2023-02-28T15:40:41;4.82;;;2.28;;